Airport View

Enter AWOS ICAO identifier for current METAR.

ex. KFNL

KJFX 250135Z AUTO 00000KT 10SM SCT060 SCT070 24/23 A2997 RMK AO2 PWINO

25 May 2020 01:35

Frequency: 119.225

Phone: 205-295-5539

Other Area AWOS: K1M4 - KCMD - KBHM - KEKY

TAF KBHM 242334Z 2500/2524 VRB04KT P6SM FEW150 FM251500 10006KT P6SM SCT080 FM252000 12009KT P6SM SCT090 PROB30 2521/2524 4SM TSRA BKN100CB BKN120